aviador You're here:

KMCF Decoded Metar

TAMPA in FL, USA
Report Time2017-10-23 11:05:00
UTC Time2017-10-23 11:33:41
Flight Rules vfr VFR
WindVRB at 05 kt
Visibility9999 m
Phenomena:Light Rain
Clouds:Few 130 Hf
Broken 150 Hf
Expected CloudBase > 800 ft AGL from Temp-Dew spread
Ceiling15,000 ft
Temp25°C (ISA +10)
Dew Point23°C (89% RH)
QNH1017 hPa
Density Alt1,407 ft
Elevation13 ft
Report Wrong Elevation
Raw Report
KMCF 231105Z VRB05KT 7SM -RA FEW130 BKN150 25/23 A3003 RMK A02A
SLP168 WND DATA ESTMD AND SLP/ALTSG ESTMD $=

Extra information for KMCF:More info

Metar Taf Metar & Taf Last 4 Metars F.Rules Stats Wind Profile Meteogram Temp Stats Airport Information Weather charts Add Link Nearby VenuesMetar ALERT Operation Metar Decoded Social comments

AIRNAV info for KMCF